Time;durP1;ratioP1;P1;durP2;ratioP2;P2;SDS_P1;SDS_P2;PMS_P1;PMS_P2;Temp;Humidity;BMP_temperature;BMP_pressure;BME280_temperature;BME280_humidity;BME280_pressure;Samples;Min_cycle;Max_cycle;Signal;HPM_P1;HPM_P2
2023/01/28 00:01:27;;;;;;;3.65;2.63;;;-0.10;99.90;;;;;;5092705;28;20424;-84
2023/01/28 00:03:52;;;;;;;4.38;3.05;;;-0.10;99.90;;;;;;5075723;28;20089;-84
2023/01/28 00:06:18;;;;;;;5.50;3.30;;;-0.20;99.90;;;;;;5074980;28;20020;-84
2023/01/28 00:08:44;;;;;;;6.25;3.70;;;-0.20;99.90;;;;;;5091821;28;20039;-84
2023/01/28 00:11:12;;;;;;;6.60;3.95;;;-0.20;99.90;;;;;;5092211;28;20035;-84
2023/01/28 00:13:38;;;;;;;5.38;3.45;;;-0.10;99.90;;;;;;5075375;28;20039;-84
2023/01/28 00:16:07;;;;;;;5.45;3.17;;;-0.10;99.90;;;;;;5074980;28;20032;-84
2023/01/28 00:18:33;;;;;;;5.65;3.30;;;-0.20;99.90;;;;;;5075080;28;20387;-84
2023/01/28 00:21:36;;;;;;;4.15;2.75;;;-0.20;99.90;;;;;;5091492;28;20028;-85
2023/01/28 00:24:02;;;;;;;5.03;2.83;;;-0.20;99.90;;;;;;5074591;28;20161;-85
2023/01/28 00:26:28;;;;;;;4.22;2.88;;;-0.20;99.90;;;;;;5075221;28;20126;-85
2023/01/28 00:28:54;;;;;;;5.00;3.13;;;-0.20;99.90;;;;;;5091521;28;20364;-84
2023/01/28 00:31:21;;;;;;;4.55;2.50;;;-0.20;99.90;;;;;;5091380;28;20036;-84
2023/01/28 00:33:49;;;;;;;3.42;2.15;;;-0.20;99.90;;;;;;5074388;28;20058;-85
2023/01/28 00:36:16;;;;;;;3.65;2.55;;;-0.20;99.90;;;;;;5091146;28;20471;-84
2023/01/28 00:38:42;;;;;;;3.13;2.05;;;-0.20;99.90;;;;;;5073700;28;20027;-85
2023/01/28 00:41:09;;;;;;;3.85;2.75;;;-0.20;99.90;;;;;;5073691;28;20041;-84
2023/01/28 00:43:35;;;;;;;4.00;2.70;;;-0.20;99.90;;;;;;5074077;28;20036;-84
2023/01/28 00:46:02;;;;;;;4.60;2.78;;;-0.20;99.90;;;;;;5082254;28;20063;-84
2023/01/28 00:48:27;;;;;;;4.88;2.92;;;-0.20;99.90;;;;;;5091685;28;20735;-84
2023/01/28 00:50:53;;;;;;;4.82;2.95;;;-0.20;99.90;;;;;;5074391;28;20031;-84
2023/01/28 00:53:19;;;;;;;6.00;3.10;;;-0.20;99.90;;;;;;5091416;28;20143;-84
2023/01/28 00:55:44;;;;;;;7.03;3.38;;;-0.20;99.90;;;;;;5074677;28;20426;-85
2023/01/28 00:58:10;;;;;;;5.57;2.92;;;-0.20;99.90;;;;;;5074651;28;20028;-84
2023/01/28 01:00:36;;;;;;;5.30;3.20;;;-0.20;99.90;;;;;;5074900;28;20073;-85
2023/01/28 01:03:01;;;;;;;5.85;3.70;;;-0.20;99.90;;;;;;5074628;28;20028;-84
2023/01/28 01:05:28;;;;;;;6.28;3.75;;;-0.20;99.90;;;;;;5090565;28;20031;-84
2023/01/28 01:07:54;;;;;;;6.47;3.55;;;-0.20;99.90;;;;;;5074073;28;20055;-84
2023/01/28 01:10:20;;;;;;;5.88;3.20;;;-0.10;99.90;;;;;;5073561;28;20059;-85
2023/01/28 01:12:47;;;;;;;5.68;3.28;;;-0.10;99.90;;;;;;5074124;28;20028;-84
2023/01/28 01:15:12;;;;;;;5.82;3.75;;;-0.10;99.90;;;;;;5074030;28;20024;-84
2023/01/28 01:18:04;;;;;;;5.28;3.55;;;-0.10;99.90;;;;;;5074608;28;20035;-85
2023/01/28 01:20:46;;;;;;;5.85;3.47;;;-0.20;99.90;;;;;;5101006;28;20024;-84
2023/01/28 01:23:12;;;;;;;4.32;3.20;;;-0.20;99.90;;;;;;5090967;28;20024;-84
2023/01/28 01:25:48;;;;;;;5.43;3.00;;;-0.20;99.90;;;;;;5074103;28;20510;-84
2023/01/28 01:28:14;;;;;;;4.13;2.70;;;-0.20;99.90;;;;;;5073490;28;20064;-84
2023/01/28 01:30:41;;;;;;;5.63;3.63;;;-0.20;99.90;;;;;;5073939;28;20146;-84
2023/01/28 01:33:07;;;;;;;5.07;3.42;;;-0.20;99.90;;;;;;5074147;28;20392;-85
2023/01/28 01:35:33;;;;;;;4.95;3.03;;;-0.20;99.90;;;;;;5073665;28;20028;-84
2023/01/28 01:37:58;;;;;;;5.45;3.17;;;-0.20;99.90;;;;;;5090949;28;20448;-85
2023/01/28 01:40:24;;;;;;;5.80;3.28;;;-0.20;99.90;;;;;;5074269;28;20046;-84
2023/01/28 01:42:50;;;;;;;4.05;2.75;;;-0.30;99.90;;;;;;5073975;28;20027;-84
2023/01/28 01:45:16;;;;;;;5.75;3.38;;;-0.40;99.90;;;;;;5073962;28;20028;-84
2023/01/28 01:47:57;;;;;;;5.30;3.75;;;-0.40;99.90;;;;;;5090833;28;20036;-84
2023/01/28 01:50:32;;;;;;;5.13;3.25;;;-0.40;99.90;;;;;;5105404;28;21042;-84
2023/01/28 01:53:19;;;;;;;5.65;3.53;;;-0.40;99.90;;;;;;5069713;28;20406;-84
2023/01/28 01:55:48;;;;;;;6.65;4.07;;;-0.50;99.90;;;;;;5068022;28;20036;-84
2023/01/28 01:58:22;;;;;;;4.90;3.35;;;-0.50;99.90;;;;;;5073136;28;20047;-84
2023/01/28 02:00:48;;;;;;;6.35;3.90;;;-0.50;99.90;;;;;;5090442;28;20123;-84
2023/01/28 02:03:24;;;;;;;8.43;4.53;;;-0.60;99.90;;;;;;5073560;28;20415;-84
2023/01/28 02:05:50;;;;;;;7.57;4.78;;;-0.60;99.90;;;;;;5073832;28;20698;-84
2023/01/28 02:08:21;;;;;;;9.57;5.00;;;-0.50;99.90;;;;;;5073805;28;20029;-84
2023/01/28 02:11:04;;;;;;;10.38;5.88;;;-0.50;99.90;;;;;;5090537;28;20024;-84
2023/01/28 02:13:35;;;;;;;9.45;5.53;;;-0.50;99.90;;;;;;5066077;28;20421;-84
2023/01/28 02:16:02;;;;;;;;;;;-0.60;99.90;;;;;;5073864;28;20101;-84
2023/01/28 02:18:27;;;;;;;10.25;5.70;;;-0.50;99.90;;;;;;5090098;28;19919;-84
2023/01/28 02:21:30;;;;;;;12.68;5.45;;;-0.50;99.90;;;;;;5091436;28;20028;-85
2023/01/28 02:24:30;;;;;;;10.43;5.78;;;-0.50;99.90;;;;;;5073573;28;20449;-85
2023/01/28 02:27:23;;;;;;;13.40;6.22;;;-0.50;99.90;;;;;;5073633;28;20025;-84
2023/01/28 02:30:05;;;;;;;9.75;5.63;;;-0.40;99.90;;;;;;5068682;28;20070;-84
2023/01/28 02:32:36;;;;;;;8.77;5.18;;;-0.30;99.90;;;;;;5077104;28;20055;-85
2023/01/28 02:35:12;;;;;;;11.93;6.00;;;-0.40;99.90;;;;;;5077189;28;20055;-84
2023/01/28 02:38:17;;;;;;;10.45;6.53;;;-0.30;99.90;;;;;;5067443;28;20028;-84
2023/01/28 02:41:05;;;;;;;9.60;5.32;;;-0.30;99.90;;;;;;5076767;28;20119;-84
2023/01/28 02:43:37;;;;;;;12.20;5.63;;;-0.30;99.90;;;;;;5093390;28;20037;-84
2023/01/28 02:49:27;;;;;;;12.82;6.88;;;-0.30;99.90;;;;;;5090566;28;20032;-84
2023/01/28 02:52:07;;;;;;;11.60;6.43;;;-0.30;99.90;;;;;;5076232;28;20115;-84
2023/01/28 02:55:07;;;;;;;11.02;6.70;;;-0.30;99.90;;;;;;5076757;28;20070;-84
2023/01/28 02:57:46;;;;;;;12.55;7.40;;;-0.30;99.90;;;;;;5086353;28;20119;-85
2023/01/28 03:00:30;;;;;;;15.57;8.55;;;-0.20;99.90;;;;;;5092854;28;20024;-84
2023/01/28 03:03:06;;;;;;;29.00;13.85;;;-0.20;99.90;;;;;;5076467;28;20032;-84
2023/01/28 03:06:07;;;;;;;12.45;6.60;;;-0.20;99.90;;;;;;5092480;28;20067;-84
2023/01/28 03:36:49;;;;;;;11.40;6.18;;;-0.20;99.90;;;;;;5092427;28;20024;-84
2023/01/28 03:39:30;;;;;;;11.63;6.47;;;-0.20;99.90;;;;;;5085463;28;20036;-85
2023/01/28 03:42:13;;;;;;;10.35;6.05;;;-0.20;99.90;;;;;;5075092;28;20047;-85
2023/01/28 03:44:51;;;;;;;10.77;6.18;;;-0.20;99.90;;;;;;5092239;28;20077;-85
2023/01/28 03:47:26;;;;;;;10.93;6.03;;;-0.30;99.90;;;;;;5075528;28;20024;-84
2023/01/28 03:49:54;;;;;;;10.57;6.50;;;-0.20;99.90;;;;;;5075281;28;20031;-84
2023/01/28 03:52:28;;;;;;;11.43;6.90;;;-0.20;99.90;;;;;;5091507;28;20058;-85
2023/01/28 03:55:12;;;;;;;11.95;6.03;;;-0.20;99.90;;;;;;5075857;28;20102;-84
2023/01/28 03:57:43;;;;;;;11.25;6.13;;;-0.20;99.90;;;;;;5092009;28;20024;-84
2023/01/28 04:00:11;;;;;;;9.18;5.47;;;-0.20;99.90;;;;;;5075308;28;20027;-84
2023/01/28 04:02:42;;;;;;;14.30;6.13;;;-0.30;99.90;;;;;;5092269;28;20032;-85
2023/01/28 04:05:14;;;;;;;8.88;5.32;;;-0.30;99.90;;;;;;5073518;28;20024;-85
2023/01/28 04:07:45;;;;;;;9.77;6.05;;;-0.30;99.90;;;;;;5075712;28;20024;-84
2023/01/28 04:10:19;;;;;;;9.27;5.75;;;-0.30;99.90;;;;;;5075725;28;20020;-84
2023/01/28 04:12:53;;;;;;;8.95;5.60;;;-0.30;99.90;;;;;;5091894;28;20020;-85
2023/01/28 04:15:19;;;;;;;8.05;5.10;;;-0.30;99.90;;;;;;5075172;28;20028;-84
2023/01/28 04:18:02;;;;;;;7.82;4.95;;;-0.30;99.90;;;;;;5075384;28;20119;-84
2023/01/28 04:20:32;;;;;;;11.02;5.55;;;-0.40;99.90;;;;;;5092087;28;20536;-84
2023/01/28 04:22:59;;;;;;;10.00;5.63;;;-0.30;99.90;;;;;;5075362;28;20047;-85
2023/01/28 04:25:25;;;;;;;10.32;5.90;;;-0.30;99.90;;;;;;5074814;28;20124;-84
2023/01/28 04:27:51;;;;;;;12.93;6.43;;;-0.30;99.90;;;;;;5074977;28;20736;-84
2023/01/28 04:30:20;;;;;;;12.95;6.03;;;-0.30;99.90;;;;;;5090924;28;20037;-84
2023/01/28 04:33:07;;;;;;;18.00;7.22;;;-0.30;99.90;;;;;;5092384;28;20035;-85
2023/01/28 04:35:53;;;;;;;12.43;6.50;;;-0.30;99.90;;;;;;5092557;28;20036;-84
2023/01/28 04:38:24;;;;;;;11.37;6.23;;;-0.30;99.90;;;;;;5075598;28;20036;-84
2023/01/28 04:41:06;;;;;;;13.88;6.65;;;-0.30;99.90;;;;;;5076475;28;20032;-85
2023/01/28 04:43:33;;;;;;;11.30;6.03;;;-0.30;99.90;;;;;;5074510;28;20020;-85
2023/01/28 04:46:17;;;;;;;11.02;6.35;;;-0.30;99.90;;;;;;5091447;28;20039;-84
2023/01/28 04:49:02;;;;;;;10.68;5.78;;;-0.30;99.90;;;;;;5088733;28;20092;-85
2023/01/28 04:51:51;;;;;;;10.80;5.28;;;-0.30;99.90;;;;;;5077494;28;20016;-84
2023/01/28 04:54:27;;;;;;;12.48;6.40;;;-0.30;99.90;;;;;;5075874;28;20437;-84
2023/01/28 04:56:56;;;;;;;12.77;6.43;;;-0.30;99.90;;;;;;5092152;28;20021;-84
2023/01/28 04:59:23;;;;;;;10.32;6.10;;;-0.30;99.90;;;;;;5075265;28;20024;-84
2023/01/28 05:01:50;;;;;;;12.60;6.25;;;-0.30;99.90;;;;;;5074749;28;20028;-84
2023/01/28 05:04:16;;;;;;;10.95;6.20;;;-0.30;99.90;;;;;;5074460;28;20028;-84
2023/01/28 05:06:42;;;;;;;10.65;5.80;;;-0.30;99.90;;;;;;5074614;28;20035;-84
2023/01/28 05:09:12;;;;;;;10.52;5.95;;;-0.30;99.90;;;;;;5075282;28;20028;-84
2023/01/28 05:11:39;;;;;;;9.45;5.40;;;-0.30;99.90;;;;;;5090092;28;20166;-85
2023/01/28 05:14:06;;;;;;;9.25;5.18;;;-0.40;99.90;;;;;;5074820;28;20035;-85
2023/01/28 05:16:58;;;;;;;16.83;7.72;;;-0.40;99.90;;;;;;5084965;28;20055;-84
2023/01/28 05:19:24;;;;;;;12.02;6.80;;;-0.30;99.90;;;;;;5075015;28;20055;-85
2023/01/28 05:21:49;;;;;;;18.80;9.98;;;-0.30;99.90;;;;;;5091258;28;20020;-85
2023/01/28 05:24:31;;;;;;;14.38;6.97;;;-0.40;99.90;;;;;;5091125;28;20054;-84
2023/01/28 05:26:57;;;;;;;12.93;6.82;;;-0.40;99.90;;;;;;5074277;28;20028;-84
2023/01/28 05:29:32;;;;;;;11.35;6.18;;;-0.40;99.90;;;;;;5090422;28;20464;-84
2023/01/28 05:31:58;;;;;;;13.40;7.13;;;-0.40;99.90;;;;;;5074292;28;20036;-85
2023/01/28 05:34:24;;;;;;;12.55;6.97;;;-0.40;99.90;;;;;;5074426;28;20024;-84
2023/01/28 05:36:50;;;;;;;9.82;5.85;;;-0.30;99.90;;;;;;5074530;28;20044;-85
2023/01/28 05:39:35;;;;;;;15.10;6.60;;;-0.40;99.90;;;;;;5070121;28;20704;-84
2023/01/28 05:42:22;;;;;;;10.00;6.10;;;-0.30;99.90;;;;;;5090701;28;20111;-84
2023/01/28 05:44:53;;;;;;;9.43;5.18;;;-0.30;99.90;;;;;;5075002;28;20028;-84
2023/01/28 05:47:40;;;;;;;10.35;5.72;;;-0.30;99.90;;;;;;5071191;28;20025;-85
2023/01/28 05:50:24;;;;;;;11.05;5.78;;;-0.30;99.90;;;;;;5091286;28;20101;-84
2023/01/28 05:53:08;;;;;;;12.30;5.97;;;-0.30;99.90;;;;;;5092143;28;20047;-84
2023/01/28 05:55:35;;;;;;;12.00;6.07;;;-0.30;99.90;;;;;;5074033;28;20036;-84
2023/01/28 05:58:01;;;;;;;11.68;5.20;;;-0.30;99.90;;;;;;5090908;28;20043;-84
2023/01/28 06:00:27;;;;;;;10.23;5.95;;;-0.30;99.90;;;;;;5090422;28;20040;-85
2023/01/28 06:02:52;;;;;;;19.35;5.85;;;-0.30;99.90;;;;;;5090863;28;20086;-84
2023/01/28 06:05:19;;;;;;;11.98;6.50;;;-0.30;99.90;;;;;;5075743;28;20028;-84
2023/01/28 06:07:46;;;;;;;9.60;5.80;;;-0.30;99.90;;;;;;5078139;28;20031;-85
2023/01/28 06:10:13;;;;;;;12.20;6.30;;;-0.30;99.90;;;;;;5078123;28;20391;-84
2023/01/28 06:12:39;;;;;;;15.27;6.28;;;-0.30;99.90;;;;;;5077877;28;20028;-84
2023/01/28 06:15:24;;;;;;;11.20;6.07;;;-0.30;99.90;;;;;;5094065;28;20036;-84
2023/01/28 06:17:59;;;;;;;9.75;5.50;;;-0.30;99.90;;;;;;5094247;28;20103;-84
2023/01/28 06:20:31;;;;;;;14.88;8.30;;;-0.30;99.90;;;;;;5078377;28;20031;-85
2023/01/28 06:22:58;;;;;;;14.63;6.55;;;-0.30;99.90;;;;;;5073956;28;20073;-85
2023/01/28 06:25:23;;;;;;;12.05;6.55;;;-0.40;99.90;;;;;;5077167;28;20031;-84
2023/01/28 06:27:49;;;;;;;12.07;6.78;;;-0.30;99.90;;;;;;5093888;28;20038;-84
2023/01/28 06:30:15;;;;;;;11.50;6.45;;;-0.30;99.90;;;;;;5077260;28;20521;-85
2023/01/28 06:32:41;;;;;;;11.70;6.82;;;-0.30;99.90;;;;;;5077202;28;20024;-84
2023/01/28 06:35:07;;;;;;;11.02;6.47;;;-0.30;99.90;;;;;;5069294;28;20033;-85
2023/01/28 06:37:33;;;;;;;13.90;7.47;;;-0.30;99.90;;;;;;5074329;28;20024;-85
2023/01/28 06:39:59;;;;;;;12.85;7.28;;;-0.40;99.90;;;;;;5093799;28;20086;-84
2023/01/28 06:42:24;;;;;;;16.23;8.02;;;-0.40;99.90;;;;;;5087944;28;20478;-84
2023/01/28 06:44:50;;;;;;;12.95;7.00;;;-0.40;99.90;;;;;;5075265;28;20387;-85
2023/01/28 06:47:16;;;;;;;13.57;7.22;;;-0.40;99.90;;;;;;5071292;28;20031;-85
2023/01/28 06:49:42;;;;;;;12.48;6.93;;;-0.40;99.90;;;;;;5086057;28;20768;-84
2023/01/28 06:52:07;;;;;;;13.30;7.57;;;-0.40;99.90;;;;;;5065043;28;20047;-85
2023/01/28 06:54:33;;;;;;;15.73;8.02;;;-0.40;99.90;;;;;;5071511;28;20733;-85
2023/01/28 06:57:06;;;;;;;13.07;7.30;;;-0.40;99.90;;;;;;5070251;28;20024;-85
2023/01/28 06:59:32;;;;;;;14.90;7.47;;;-0.40;99.90;;;;;;5067639;28;20028;-85
2023/01/28 07:01:57;;;;;;;17.15;7.95;;;-0.40;99.90;;;;;;5084270;28;20043;-84
2023/01/28 07:04:23;;;;;;;19.02;8.77;;;-0.40;99.90;;;;;;5091691;28;20107;-86
2023/01/28 07:06:49;;;;;;;15.55;8.00;;;-0.40;99.90;;;;;;5066177;28;20052;-86
2023/01/28 07:09:14;;;;;;;15.13;8.45;;;-0.40;99.90;;;;;;5085359;28;20024;-86
2023/01/28 07:11:40;;;;;;;16.48;8.52;;;-0.40;99.90;;;;;;5069883;28;20873;-86
2023/01/28 07:14:06;;;;;;;16.75;8.13;;;-0.40;99.90;;;;;;5071645;28;20024;-86
2023/01/28 07:16:32;;;;;;;15.30;7.80;;;-0.40;99.90;;;;;;5062095;28;20025;-85
2023/01/28 07:18:57;;;;;;;14.30;8.38;;;-0.40;99.90;;;;;;5076212;28;20032;-86
2023/01/28 07:21:23;;;;;;;13.80;7.53;;;-0.40;99.90;;;;;;5075694;28;20074;-86
2023/01/28 07:23:48;;;;;;;12.68;7.13;;;-0.40;99.90;;;;;;5076422;28;20035;-87
2023/01/28 07:26:14;;;;;;;17.17;7.35;;;-0.30;99.90;;;;;;5075502;28;20071;-86
2023/01/28 07:28:40;;;;;;;12.15;6.57;;;-0.40;99.90;;;;;;5074791;28;20066;-86
2023/01/28 07:31:06;;;;;;;15.35;7.13;;;-0.40;99.90;;;;;;5086260;28;20032;-85
2023/01/28 07:33:41;;;;;;;15.65;8.02;;;-0.40;99.90;;;;;;5070523;28;20032;-86
2023/01/28 07:36:07;;;;;;;16.27;7.50;;;-0.40;99.90;;;;;;5073896;28;20028;-85
2023/01/28 07:38:32;;;;;;;15.02;7.10;;;-0.30;99.90;;;;;;5068417;28;20035;-86
2023/01/28 07:40:58;;;;;;;13.43;7.13;;;-0.30;99.90;;;;;;5070742;28;20028;-86
2023/01/28 07:43:24;;;;;;;14.63;7.53;;;-0.30;99.90;;;;;;5065974;28;20119;-86
2023/01/28 07:45:49;;;;;;;15.02;7.05;;;-0.30;99.90;;;;;;5089582;28;20032;-86
2023/01/28 07:48:15;;;;;;;15.02;8.27;;;-0.40;99.90;;;;;;5065421;28;20110;-86
2023/01/28 07:50:41;;;;;;;15.40;8.07;;;-0.30;99.90;;;;;;5070704;28;20027;-86
2023/01/28 07:53:10;;;;;;;21.02;8.07;;;-0.30;99.90;;;;;;5089849;28;20070;-86
2023/01/28 07:55:36;;;;;;;14.23;7.72;;;-0.30;99.90;;;;;;5082240;28;20062;-86
2023/01/28 07:58:04;;;;;;;19.50;8.50;;;-0.30;99.90;;;;;;5085127;28;20032;-86
2023/01/28 08:00:32;;;;;;;16.70;7.95;;;-0.30;99.90;;;;;;5087368;28;20489;-86
2023/01/28 08:03:16;;;;;;;13.38;7.10;;;-0.20;99.90;;;;;;5064663;28;20035;-86
2023/01/28 08:05:47;;;;;;;18.45;8.88;;;-0.20;99.90;;;;;;5071573;28;20400;-86
2023/01/28 08:08:14;;;;;;;;;;;-0.20;99.90;;;;;;5073264;28;20031;-87
2023/01/28 08:10:39;;;;;;;15.50;8.15;;;-0.20;99.90;;;;;;5074175;28;19907;-86
2023/01/28 08:13:09;;;;;;;16.80;8.60;;;-0.10;99.90;;;;;;5068991;28;20471;-86
2023/01/28 08:15:35;;;;;;;18.25;8.75;;;-0.20;99.90;;;;;;5080798;28;20036;-86
2023/01/28 08:18:02;;;;;;;16.55;8.13;;;-0.10;99.90;;;;;;5084635;28;20029;-86
2023/01/28 08:21:09;;;;;;;14.98;7.25;;;-0.20;99.90;;;;;;5101131;28;20059;-86
2023/01/28 08:23:35;;;;;;;15.88;7.10;;;-0.10;99.90;;;;;;5082336;28;20523;-86
2023/01/28 08:26:00;;;;;;;15.82;8.65;;;-0.10;99.90;;;;;;5073512;28;20111;-86
2023/01/28 08:28:26;;;;;;;15.32;8.20;;;-0.10;99.90;;;;;;5057776;28;20032;-86
2023/01/28 08:30:52;;;;;;;14.48;7.05;;;-0.10;99.90;;;;;;5076965;28;20067;-86
2023/01/28 08:33:19;;;;;;;16.35;8.75;;;0.00;99.90;;;;;;5073650;28;20016;-85
2023/01/28 08:35:45;;;;;;;20.42;8.93;;;0.00;99.90;;;;;;5077326;28;20081;-86
2023/01/28 08:38:14;;;;;;;17.33;8.00;;;0.00;99.90;;;;;;5084205;28;20061;-86
2023/01/28 08:40:40;;;;;;;15.57;8.18;;;0.10;99.90;;;;;;5064324;28;20506;-85
2023/01/28 08:43:06;;;;;;;16.42;9.07;;;0.30;99.90;;;;;;5072247;28;20035;-86
2023/01/28 08:45:32;;;;;;;18.73;8.40;;;0.20;99.90;;;;;;5078946;28;20057;-86
2023/01/28 08:48:00;;;;;;;13.90;8.10;;;0.30;99.90;;;;;;5066960;28;20459;-86
2023/01/28 08:50:31;;;;;;;15.85;8.75;;;0.30;99.90;;;;;;5090209;28;20028;-86
2023/01/28 08:53:04;;;;;;;16.33;8.70;;;0.30;99.90;;;;;;5081131;28;20617;-85
2023/01/28 08:55:30;;;;;;;73.88;32.22;;;0.40;99.90;;;;;;5081564;28;20028;-86
2023/01/28 08:57:56;;;;;;;17.10;8.75;;;0.40;99.90;;;;;;5067372;28;20050;-86
2023/01/28 09:00:22;;;;;;;18.65;7.25;;;0.40;99.90;;;;;;5081015;28;20024;-86
2023/01/28 09:03:38;;;;;;;12.20;6.78;;;0.50;99.90;;;;;;5094421;28;20040;-87
2023/01/28 09:06:04;;;;;;;11.90;6.63;;;0.50;99.90;;;;;;5081206;28;20115;-86
2023/01/28 09:08:31;;;;;;;13.65;6.63;;;0.60;99.90;;;;;;5082928;28;20539;-86
2023/01/28 09:10:57;;;;;;;12.80;6.60;;;0.60;99.90;;;;;;5071069;28;20024;-86
2023/01/28 09:13:22;;;;;;;11.57;6.45;;;0.60;99.90;;;;;;5067582;28;20140;-86
2023/01/28 09:15:48;;;;;;;10.07;6.05;;;0.60;99.90;;;;;;5074593;28;20028;-86
2023/01/28 09:18:14;;;;;;;15.48;7.30;;;0.70;99.90;;;;;;5075832;28;20483;-85
2023/01/28 09:20:40;;;;;;;12.13;6.90;;;0.70;99.90;;;;;;5071922;28;20135;-86
2023/01/28 09:23:06;;;;;;;19.63;10.45;;;0.80;99.90;;;;;;5080244;28;20031;-86
2023/01/28 09:25:32;;;;;;;19.83;10.27;;;0.70;99.90;;;;;;5076668;28;20081;-86
2023/01/28 09:27:58;;;;;;;13.73;6.47;;;0.70;99.90;;;;;;5073905;28;20056;-86
2023/01/28 09:30:24;;;;;;;13.18;7.80;;;0.60;99.90;;;;;;5074524;28;20039;-86
2023/01/28 09:32:52;;;;;;;11.68;6.25;;;0.50;99.90;;;;;;5091122;28;20053;-86
2023/01/28 09:35:18;;;;;;;10.45;6.47;;;0.70;99.90;;;;;;5073789;28;20788;-86
2023/01/28 09:37:45;;;;;;;7.70;5.22;;;0.70;99.90;;;;;;5064329;28;20101;-86
2023/01/28 09:40:29;;;;;;;10.90;5.38;;;0.80;99.90;;;;;;5093344;28;20027;-86
2023/01/28 09:43:04;;;;;;;10.32;5.80;;;0.80;99.90;;;;;;5078819;28;20119;-86
2023/01/28 09:45:45;;;;;;;12.73;6.80;;;0.80;99.90;;;;;;5087738;28;20100;-86
2023/01/28 09:48:20;;;;;;;11.88;6.45;;;0.90;99.90;;;;;;5095213;28;20028;-86
2023/01/28 09:50:52;;;;;;;12.13;5.60;;;1.00;99.90;;;;;;5095160;28;20410;-86
2023/01/28 09:53:20;;;;;;;13.43;7.22;;;1.10;99.90;;;;;;5074933;28;20471;-86
2023/01/28 09:55:56;;;;;;;9.73;5.82;;;1.00;99.90;;;;;;5078505;28;20035;-86
2023/01/28 09:58:37;;;;;;;11.00;6.00;;;1.10;99.90;;;;;;5094581;28;20034;-86
2023/01/28 10:01:21;;;;;;;13.68;6.43;;;1.00;99.90;;;;;;5094853;28;20039;-86
2023/01/28 10:04:02;;;;;;;8.75;5.13;;;1.10;99.90;;;;;;5072320;28;20032;-86
2023/01/28 10:06:50;;;;;;;11.98;5.35;;;1.20;99.90;;;;;;5095086;28;20036;-86
2023/01/28 10:09:31;;;;;;;7.70;4.90;;;1.30;99.90;;;;;;5077866;28;20032;-86
2023/01/28 10:12:26;;;;;;;9.18;5.53;;;1.40;99.90;;;;;;5077183;28;20036;-86
2023/01/28 10:14:57;;;;;;;9.85;5.45;;;1.40;99.90;;;;;;5089572;28;20498;-86
2023/01/28 10:17:23;;;;;;;;;;;1.40;99.90;;;;;;5078279;28;20109;-86
2023/01/28 10:20:20;;;;;;;30.75;14.32;;;1.30;99.90;;;;;;5079557;28;20317;-86
2023/01/28 10:23:22;;;;;;;20.38;10.90;;;1.20;99.90;;;;;;5077967;28;20027;-87
2023/01/28 10:25:48;;;;;;;9.15;5.57;;;1.10;99.90;;;;;;5108261;28;20048;-86
2023/01/28 10:28:25;;;;;;;10.07;5.70;;;1.10;99.90;;;;;;5077499;28;20028;-86
2023/01/28 10:30:51;;;;;;;9.70;5.72;;;1.20;99.90;;;;;;5079194;28;20024;-86
2023/01/28 10:33:38;;;;;;;9.88;6.28;;;1.20;99.90;;;;;;5094401;28;20039;-86
2023/01/28 10:36:06;;;;;;;9.43;5.78;;;1.30;99.90;;;;;;5071972;28;20077;-86
2023/01/28 10:38:32;;;;;;;11.90;6.00;;;1.30;99.90;;;;;;5076077;28;20032;-86
2023/01/28 10:41:01;;;;;;;8.23;4.50;;;1.30;99.90;;;;;;5089535;28;20463;-86
2023/01/28 10:43:31;;;;;;;9.60;5.65;;;1.20;99.90;;;;;;5092334;28;20024;-86
2023/01/28 10:46:12;;;;;;;9.45;6.05;;;1.00;99.90;;;;;;5093371;28;20025;-86
2023/01/28 10:48:44;;;;;;;14.50;6.57;;;1.10;99.90;;;;;;5073175;28;20024;-86
2023/01/28 10:51:09;;;;;;;12.02;7.05;;;1.10;99.90;;;;;;5066842;28;20041;-87
2023/01/28 10:53:44;;;;;;;11.93;6.82;;;0.90;99.90;;;;;;5093700;28;20016;-86
2023/01/28 10:56:46;;;;;;;8.93;6.10;;;1.00;99.90;;;;;;5064918;28;20119;-86
2023/01/28 10:59:24;;;;;;;12.88;6.95;;;1.00;99.90;;;;;;4990396;28;20129;-87
2023/01/28 11:01:59;;;;;;;10.98;6.50;;;1.00;99.90;;;;;;5076515;28;20391;-86
2023/01/28 11:04:33;;;;;;;13.05;6.85;;;1.00;99.90;;;;;;5090287;28;20024;-86
2023/01/28 11:07:03;;;;;;;14.95;6.43;;;1.10;99.90;;;;;;5075227;28;20345;-86
2023/01/28 11:09:35;;;;;;;12.70;5.97;;;1.10;99.90;;;;;;5094801;28;20054;-87
2023/01/28 11:12:30;;;;;;;;;;;1.20;99.90;;;;;;5084630;28;20031;-86
2023/01/28 11:14:58;;;;;;;10.88;6.57;;;1.20;99.90;;;;;;5079572;28;19918;-87
2023/01/28 11:17:28;;;;;;;12.27;6.95;;;1.50;99.90;;;;;;5075755;28;20033;-86
2023/01/28 11:19:57;;;;;;;8.60;5.00;;;1.70;99.90;;;;;;5079480;28;20032;-86
2023/01/28 11:22:40;;;;;;;9.30;5.63;;;1.70;99.90;;;;;;5084444;28;20428;-86
2023/01/28 11:25:23;;;;;;;8.18;4.90;;;1.40;99.90;;;;;;5062202;28;20067;-86
2023/01/28 11:27:51;;;;;;;19.70;9.40;;;1.40;99.90;;;;;;5069230;28;20021;-87
2023/01/28 11:30:34;;;;;;;21.27;9.02;;;1.60;99.90;;;;;;5088059;28;20016;-86
2023/01/28 11:33:29;;;;;;;10.80;5.97;;;1.80;99.90;;;;;;5073370;28;20059;-86
2023/01/28 11:36:18;;;;;;;14.60;7.30;;;1.90;99.90;;;;;;5089958;28;20028;-86
2023/01/28 11:38:59;;;;;;;10.77;5.68;;;1.90;99.90;;;;;;5095063;28;20028;-86
2023/01/28 11:41:28;;;;;;;22.05;9.60;;;2.00;99.90;;;;;;5076433;28;20128;-86
2023/01/28 11:43:54;;;;;;;20.17;10.18;;;1.70;99.90;;;;;;5075926;28;20027;-86
2023/01/28 11:46:43;;;;;;;17.15;7.80;;;1.80;99.90;;;;;;5073396;28;20040;-86
2023/01/28 11:49:50;;;;;;;54.58;19.40;;;1.70;99.90;;;;;;5094921;28;20113;-86
2023/01/28 11:52:40;;;;;;;46.10;16.23;;;1.80;99.90;;;;;;5053710;28;20039;-87
2023/01/28 11:55:21;;;;;;;20.02;9.35;;;1.90;99.90;;;;;;5076055;28;20024;-86
2023/01/28 11:58:12;;;;;;;19.63;10.35;;;1.60;99.90;;;;;;5076372;28;20031;-86
2023/01/28 12:00:50;;;;;;;;;;;1.50;99.90;;;;;;5069204;28;20035;-86
2023/01/28 12:03:40;;;;;;;8.25;4.47;;;1.40;99.90;;;;;;5092028;28;20006;-86
2023/01/28 12:06:18;;;;;;;6.75;4.22;;;1.50;99.90;;;;;;5075407;28;20016;-86
2023/01/28 12:09:11;;;;;;;6.75;4.05;;;1.50;99.90;;;;;;5093801;28;20044;-87
2023/01/28 12:14:35;;;;;;;9.85;4.45;;;1.60;99.90;;;;;;5092252;28;20077;-86
2023/01/28 12:17:26;;;;;;;9.63;5.25;;;1.60;99.90;;;;;;5092345;28;20070;-86
2023/01/28 12:20:10;;;;;;;12.05;6.18;;;1.80;99.90;;;;;;5103949;28;20486;-87
2023/01/28 12:26:49;;;;;;;7.30;3.67;;;2.10;99.90;;;;;;5093623;28;20082;-86
2023/01/28 12:29:37;;;;;;;17.60;7.43;;;2.30;99.90;;;;;;5092717;28;20388;-86
2023/01/28 12:32:14;;;;;;;40.25;15.57;;;2.10;99.90;;;;;;5075352;28;20032;-86
2023/01/28 12:35:06;;;;;;;9.52;4.93;;;2.20;99.90;;;;;;5092894;28;20024;-86
2023/01/28 12:38:01;;;;;;;7.10;4.40;;;2.20;99.90;;;;;;5084620;28;20606;-86
2023/01/28 12:40:58;;;;;;;7.15;5.05;;;2.10;99.90;;;;;;5074719;28;20032;-86
2023/01/28 12:43:49;;;;;;;9.60;5.80;;;2.00;99.90;;;;;;5074983;28;20035;-86
2023/01/28 12:46:40;;;;;;;27.80;10.37;;;1.90;99.90;;;;;;5092012;28;20024;-85
2023/01/28 12:52:22;;;;;;;12.23;7.32;;;2.00;99.90;;;;;;5097544;28;20118;-86
2023/01/28 12:55:14;;;;;;;11.07;5.80;;;1.90;99.90;;;;;;5091781;28;20505;-86
2023/01/28 12:57:40;;;;;;;7.53;5.13;;;1.90;99.90;;;;;;5078399;28;20374;-85
2023/01/28 13:00:42;;;;;;;9.43;5.55;;;1.80;99.90;;;;;;5091196;28;20661;-86
2023/01/28 13:03:40;;;;;;;12.80;6.47;;;1.50;99.90;;;;;;5074561;28;20080;-86
2023/01/28 13:06:28;;;;;;;11.05;5.95;;;1.40;99.90;;;;;;5093597;28;20036;-86
2023/01/28 13:09:02;;;;;;;11.73;6.45;;;1.40;99.90;;;;;;5091415;28;20024;-86
2023/01/28 13:11:35;;;;;;;10.15;6.50;;;1.40;99.90;;;;;;5074237;28;20035;-86
2023/01/28 13:14:03;;;;;;;8.50;4.68;;;1.30;99.90;;;;;;5091168;28;20454;-86
2023/01/28 13:16:28;;;;;;;12.60;6.28;;;1.20;99.90;;;;;;5091496;28;20031;-86
2023/01/28 13:19:07;;;;;;;13.63;6.95;;;1.20;99.90;;;;;;5091711;28;20032;-86
2023/01/28 13:21:35;;;;;;;9.98;6.20;;;1.20;99.90;;;;;;5068762;28;20081;-85
2023/01/28 13:24:01;;;;;;;15.52;7.07;;;1.30;99.90;;;;;;5078570;28;20042;-85
2023/01/28 13:26:43;;;;;;;13.45;7.47;;;1.40;99.90;;;;;;5074384;28;20467;-86
2023/01/28 13:29:19;;;;;;;13.45;7.72;;;1.40;99.90;;;;;;5074603;28;20106;-85
2023/01/28 13:31:48;;;;;;;14.95;8.00;;;1.40;99.90;;;;;;5075060;28;20023;-86
2023/01/28 13:34:39;;;;;;;12.10;6.95;;;1.50;99.90;;;;;;5090715;28;20023;-86
2023/01/28 13:37:14;;;;;;;;;;;1.50;99.90;;;;;;5091713;28;20067;-86
2023/01/28 13:39:50;;;;;;;17.92;10.10;;;1.40;99.90;;;;;;5092474;28;19908;-86
2023/01/28 13:42:19;;;;;;;18.30;9.80;;;1.40;99.90;;;;;;5074441;28;20050;-86
2023/01/28 13:45:19;;;;;;;28.40;13.20;;;1.40;99.90;;;;;;5091376;28;20019;-86
2023/01/28 13:47:47;;;;;;;15.38;7.88;;;1.30;99.90;;;;;;5068532;28;20111;-85
2023/01/28 13:50:22;;;;;;;11.35;6.85;;;1.00;99.90;;;;;;5074458;28;20103;-86
2023/01/28 13:52:57;;;;;;;12.45;6.70;;;1.00;99.90;;;;;;5087385;28;20078;-86
2023/01/28 13:55:28;;;;;;;10.60;5.22;;;0.90;99.90;;;;;;5090971;28;20031;-86
2023/01/28 13:58:24;;;;;;;9.40;5.97;;;0.90;99.90;;;;;;5074627;28;20073;-86
2023/01/28 14:01:32;;;;;;;11.07;6.28;;;0.80;99.90;;;;;;5091140;28;20471;-86